createdAt,value
2023-04-01T00:00:39.853Z,98110.59
2023-04-01T00:03:08.420Z,98113.22
2023-04-01T00:05:37.095Z,98115.00
2023-04-01T00:08:05.989Z,98124.34
2023-04-01T00:10:34.706Z,98119.34
2023-04-01T00:13:04.688Z,98120.22
2023-04-01T00:15:33.400Z,98123.66
2023-04-01T00:18:02.338Z,98120.34
2023-04-01T00:20:31.158Z,98117.81
2023-04-01T00:22:59.581Z,98122.97
2023-04-01T00:25:28.009Z,98119.75
2023-04-01T00:27:56.430Z,98118.13
2023-04-01T00:30:26.488Z,98109.63
2023-04-01T00:32:55.096Z,98117.28
2023-04-01T00:35:23.658Z,98110.47
2023-04-01T00:37:52.159Z,98118.94
2023-04-01T00:40:26.983Z,98113.88
2023-04-01T00:42:55.591Z,98118.09
2023-04-01T00:45:33.770Z,98117.19
2023-04-01T00:48:04.493Z,98125.59
2023-04-01T00:50:33.456Z,98130.63
2023-04-01T00:53:02.845Z,98128.03
2023-04-01T00:55:33.739Z,98134.88
2023-04-01T00:58:04.327Z,98132.34
2023-04-01T01:00:34.632Z,98125.50
2023-04-01T01:03:03.851Z,98135.66
2023-04-01T01:05:48.657Z,98133.09
2023-04-01T01:08:24.395Z,98133.09
2023-04-01T01:10:53.702Z,98132.22
2023-04-01T01:13:28.144Z,98130.47
2023-04-01T01:16:01.382Z,98127.06
2023-04-01T01:18:36.642Z,98132.97
2023-04-01T01:21:23.428Z,98127.03
2023-04-01T01:24:04.438Z,98121.03
2023-04-01T01:26:39.748Z,98115.97
2023-04-01T01:29:15.323Z,98114.31
2023-04-01T01:31:49.079Z,98114.34
2023-04-01T01:34:23.284Z,98109.25
2023-04-01T01:36:56.827Z,98116.03
2023-04-01T01:39:29.082Z,98117.66
2023-04-01T01:41:58.539Z,98114.19
2023-04-01T01:44:29.215Z,98124.41
2023-04-01T01:46:58.873Z,98127.00
2023-04-01T01:49:28.668Z,98121.13
2023-04-01T01:51:58.811Z,98114.31
2023-04-01T01:54:27.320Z,98123.66
2023-04-01T01:57:03.376Z,98119.47
2023-04-01T01:59:33.368Z,98118.63
2023-04-01T02:02:08.649Z,98114.31
2023-04-01T02:04:38.398Z,98110.03
2023-04-01T02:07:10.273Z,98123.53
2023-04-01T02:09:40.572Z,98117.66
2023-04-01T02:12:11.554Z,98117.69
2023-04-01T02:14:45.926Z,98111.75
2023-04-01T02:17:17.732Z,98115.97
2023-04-01T02:19:48.934Z,98110.00
2023-04-01T02:22:20.501Z,98102.31
2023-04-01T02:24:51.066Z,98102.28
2023-04-01T02:27:19.613Z,98104.78
2023-04-01T02:29:48.222Z,98100.44
2023-04-01T02:32:17.220Z,98098.59
2023-04-01T02:34:46.011Z,98095.22
2023-04-01T02:37:15.610Z,98093.47
2023-04-01T02:39:45.480Z,98102.75
2023-04-01T02:42:14.023Z,98108.66
2023-04-01T02:44:42.791Z,98112.00
2023-04-01T02:47:11.322Z,98106.94
2023-04-01T02:49:39.913Z,98107.00
2023-04-01T02:52:08.470Z,98101.91
2023-04-01T02:54:36.848Z,98098.56
2023-04-01T02:57:06.868Z,98096.06
2023-04-01T02:59:35.440Z,98091.91
2023-04-01T03:02:04.021Z,98097.88
2023-04-01T03:04:32.405Z,98100.44
2023-04-01T03:07:00.907Z,98091.28
2023-04-01T03:09:29.429Z,98089.72
2023-04-01T03:11:58.473Z,98094.06
2023-04-01T03:14:28.517Z,98089.09
2023-04-01T03:16:57.258Z,98095.09
2023-04-01T03:19:25.680Z,98091.00
2023-04-01T03:21:54.746Z,98097.00
2023-04-01T03:24:23.211Z,98093.66
2023-04-01T03:26:51.724Z,98091.97
2023-04-01T03:29:21.169Z,98092.78
2023-04-01T03:31:51.084Z,98091.19
2023-04-01T03:34:19.599Z,98091.38
2023-04-01T03:36:48.033Z,98093.09
2023-04-01T03:39:19.827Z,98091.41
2023-04-01T03:41:48.722Z,98100.00
2023-04-01T03:44:17.168Z,98092.56
2023-04-01T03:46:48.752Z,98090.13
2023-04-01T03:49:20.950Z,98096.94
2023-04-01T03:51:49.612Z,98100.41
2023-04-01T03:54:18.213Z,98108.84
2023-04-01T03:56:46.771Z,98108.09
2023-04-01T03:59:15.373Z,98118.28
2023-04-01T04:01:44.022Z,98124.34
2023-04-01T04:04:14.372Z,98121.09
2023-04-01T04:06:45.305Z,98130.34
2023-04-01T04:09:14.104Z,98122.72
2023-04-01T04:11:42.521Z,98130.28
2023-04-01T04:14:11.036Z,98137.94
2023-04-01T04:16:39.585Z,98128.66
2023-04-01T04:19:08.658Z,98136.31
2023-04-01T04:21:37.080Z,98136.25
2023-04-01T04:24:07.576Z,98136.25
2023-04-01T04:26:58.773Z,98137.09
2023-04-01T04:29:27.254Z,98138.03
2023-04-01T04:31:56.127Z,98141.34
2023-04-01T04:34:25.352Z,98139.66
2023-04-01T04:36:53.743Z,98139.66
2023-04-01T04:39:28.581Z,98143.84
2023-04-01T04:41:57.925Z,98141.31
2023-04-01T04:44:26.437Z,98146.41
2023-04-01T04:46:57.195Z,98143.00
2023-04-01T04:49:27.053Z,98144.66
2023-04-01T04:51:55.802Z,98137.88
2023-04-01T04:54:28.547Z,98134.47
2023-04-01T04:56:59.840Z,98138.63
2023-04-01T04:59:31.415Z,98128.44
2023-04-01T05:02:14.262Z,98141.06
2023-04-01T05:04:43.194Z,98151.13
2023-04-01T05:07:12.760Z,98143.44
2023-04-01T05:09:42.711Z,98134.09
2023-04-01T05:12:12.882Z,98137.38
2023-04-01T05:15:09.355Z,98146.50
2023-04-01T05:17:38.256Z,98138.00
2023-04-01T05:20:07.172Z,98144.69
2023-04-01T05:22:35.628Z,98136.94
2023-04-01T05:25:05.739Z,98129.94
2023-04-01T05:27:34.212Z,98135.72
2023-04-01T05:30:02.885Z,98121.13
2023-04-01T05:32:42.363Z,98125.84
2023-04-01T05:35:11.074Z,98140.84
2023-04-01T05:37:39.522Z,98142.44
2023-04-01T05:40:10.694Z,98140.41
2023-04-01T05:42:39.192Z,98142.72
2023-04-01T05:45:09.901Z,98147.78
2023-04-01T05:47:49.310Z,98146.09
2023-04-01T05:50:20.527Z,98142.66
2023-04-01T05:52:49.003Z,98146.94
2023-04-01T05:55:19.618Z,98146.09
2023-04-01T05:57:49.693Z,98151.13
2023-04-01T06:00:18.468Z,98157.03
2023-04-01T06:02:47.735Z,98163.75
2023-04-01T06:05:19.414Z,98171.47
2023-04-01T06:07:47.951Z,98167.31
2023-04-01T06:10:18.572Z,98169.91
2023-04-01T06:12:54.172Z,98170.72
2023-04-01T06:15:26.824Z,98175.88
2023-04-01T06:18:03.701Z,98173.34
2023-04-01T06:20:38.350Z,98176.69
2023-04-01T06:23:13.536Z,98185.22
2023-04-01T06:25:50.680Z,98175.88
2023-04-01T06:28:32.443Z,98179.19
2023-04-01T06:31:07.401Z,98170.44
2023-04-01T06:33:52.491Z,98166.69
2023-04-01T06:36:29.412Z,98166.34
2023-04-01T06:39:05.144Z,98163.38
2023-04-01T06:41:44.563Z,98168.06
2023-04-01T06:44:20.577Z,98165.97
2023-04-01T06:47:01.375Z,98164.75
2023-04-01T06:49:50.653Z,98159.34
2023-04-01T06:52:33.888Z,98164.16
2023-04-01T06:55:23.305Z,98157.88
2023-04-01T06:58:22.038Z,98168.59
2023-04-01T07:00:54.396Z,98169.09
2023-04-01T07:03:25.956Z,98157.59
2023-04-01T07:05:56.339Z,98164.84
2023-04-01T07:08:27.014Z,98170.53
2023-04-01T07:10:58.022Z,98172.06
2023-04-01T07:13:48.552Z,98180.44
2023-04-01T07:16:21.252Z,98167.53
2023-04-01T07:18:52.748Z,98171.72
2023-04-01T07:21:32.107Z,98174.25
2023-04-01T07:24:07.649Z,98165.63
2023-04-01T07:26:45.839Z,98168.03
2023-04-01T07:29:21.880Z,98173.06
2023-04-01T07:32:05.968Z,98174.66
2023-04-01T07:34:40.550Z,98169.38
2023-04-01T07:37:13.771Z,98172.53
2023-04-01T07:39:48.415Z,98172.53
2023-04-01T07:42:28.465Z,98173.28
2023-04-01T07:45:03.287Z,98170.59
2023-04-01T07:47:37.275Z,98164.31
2023-04-01T07:50:11.438Z,98168.19
2023-04-01T07:52:45.317Z,98174.72
2023-04-01T07:55:25.879Z,98174.44
2023-04-01T07:58:00.130Z,98176.03
2023-04-01T08:00:34.563Z,98181.72
2023-04-01T08:03:22.987Z,98181.56
2023-04-01T08:05:57.513Z,98184.03
2023-04-01T08:08:34.079Z,98189.94
2023-04-01T08:11:24.663Z,98187.44
2023-04-01T08:14:10.595Z,98203.56
2023-04-01T08:16:58.096Z,98195.81
2023-04-01T08:19:41.147Z,98202.31
2023-04-01T08:22:12.792Z,98198.28
2023-04-01T08:24:47.634Z,98183.06
2023-04-01T08:27:27.558Z,98171.94
2023-04-01T08:30:00.886Z,98174.66
2023-04-01T08:32:35.324Z,98174.28
2023-04-01T08:35:09.784Z,98177.69
2023-04-01T08:37:43.540Z,98183.88
2023-04-01T08:40:35.532Z,98175.50
2023-04-01T08:43:10.788Z,98179.88
2023-04-01T08:45:49.855Z,98184.97
2023-04-01T08:48:30.713Z,98192.44
2023-04-01T08:51:11.209Z,98201.13
2023-04-01T08:54:01.886Z,98201.03
2023-04-01T08:56:36.417Z,98202.81
2023-04-01T08:59:19.598Z,98204.69
2023-04-01T09:01:58.961Z,98202.13
2023-04-01T09:04:49.439Z,98201.38
2023-04-01T09:07:28.018Z,98202.81
2023-04-01T09:10:17.559Z,98196.59
2023-04-01T09:12:56.852Z,98199.75
2023-04-01T09:15:38.525Z,98199.66
2023-04-01T09:18:15.866Z,98203.94
2023-04-01T09:20:55.037Z,98210.84
2023-04-01T09:23:36.493Z,98208.66
2023-04-01T09:26:12.877Z,98208.56
2023-04-01T09:28:45.683Z,98205.25
2023-04-01T09:31:23.595Z,98214.50
2023-04-01T09:34:13.414Z,98212.72
2023-04-01T09:37:03.231Z,98212.50
2023-04-01T09:39:39.978Z,98207.69
2023-04-01T09:42:29.509Z,98208.28
2023-04-01T09:45:11.293Z,98210.56
2023-04-01T09:47:48.418Z,98221.78
2023-04-01T09:50:31.493Z,98216.13
2023-04-01T09:53:06.992Z,98203.31
2023-04-01T09:58:43.599Z,98204.19
2023-04-01T10:01:44.873Z,98207.53
2023-04-01T10:04:34.119Z,98207.97
2023-04-01T10:07:13.557Z,98222.28
2023-04-01T10:09:53.283Z,98212.75
2023-04-01T10:12:34.947Z,98214.34
2023-04-01T10:15:24.351Z,98209.56
2023-04-01T10:18:06.340Z,98210.00
2023-04-01T10:20:47.820Z,98214.59
2023-04-01T10:23:27.101Z,98209.53
2023-04-01T10:26:11.117Z,98214.59
2023-04-01T10:28:49.087Z,98215.44
2023-04-01T10:31:58.850Z,98217.50
2023-04-01T10:34:42.337Z,98214.19
2023-04-01T10:37:18.338Z,98208.91
2023-04-01T10:40:04.713Z,98212.13
2023-04-01T10:43:05.426Z,98216.69
2023-04-01T10:46:01.847Z,98214.53
2023-04-01T10:48:48.036Z,98212.66
2023-04-01T10:51:23.007Z,98204.84
2023-04-01T10:54:01.596Z,98213.13
2023-04-01T10:56:39.816Z,98210.38
2023-04-01T10:59:29.929Z,98203.44
2023-04-01T11:02:39.194Z,98200.00
2023-04-01T11:05:28.896Z,98199.75
2023-04-01T11:08:21.091Z,98191.78
2023-04-01T11:11:01.652Z,98195.00
2023-04-01T11:13:43.092Z,98201.03
2023-04-01T11:16:21.690Z,98187.41
2023-04-01T11:19:07.990Z,98192.81
2023-04-01T11:21:50.423Z,98192.94
2023-04-01T11:24:33.498Z,98194.72
2023-04-01T11:27:22.595Z,98191.63
2023-04-01T11:30:04.424Z,98192.13
2023-04-01T11:32:46.605Z,98191.44
2023-04-01T11:35:28.852Z,98194.19
2023-04-01T11:38:01.500Z,98194.38
2023-04-01T11:41:00.766Z,98193.34
2023-04-01T11:43:42.638Z,98192.22
2023-04-01T11:46:26.346Z,98186.97
2023-04-01T11:49:03.254Z,98199.63
2023-04-01T11:51:47.544Z,98183.28
2023-04-01T11:54:25.513Z,98188.41
2023-04-01T11:57:04.251Z,98189.59
2023-04-01T11:59:44.685Z,98195.09
2023-04-01T12:02:21.285Z,98184.66
2023-04-01T12:04:58.330Z,98178.56
2023-04-01T12:07:38.646Z,98181.91
2023-04-01T12:10:19.261Z,98191.78
2023-04-01T12:13:01.200Z,98186.50
2023-04-01T12:15:35.401Z,98192.00
2023-04-01T12:18:10.578Z,98197.59
2023-04-01T12:20:45.516Z,98194.38
2023-04-01T12:23:22.575Z,98207.31
2023-04-01T12:26:01.887Z,98209.38
2023-04-01T12:28:39.723Z,98204.44
2023-04-01T12:31:16.659Z,98203.75
2023-04-01T12:33:55.310Z,98209.25
2023-04-01T12:36:34.538Z,98206.28
2023-04-01T12:39:21.632Z,98208.72
2023-04-01T12:41:56.025Z,98213.78
2023-04-01T12:44:36.682Z,98211.47
2023-04-01T12:47:15.726Z,98221.78
2023-04-01T12:49:57.937Z,98225.50
2023-04-01T12:52:37.679Z,98232.09
2023-04-01T12:55:17.883Z,98225.13
2023-04-01T12:57:57.350Z,98229.72
2023-04-01T13:00:34.618Z,98242.06
2023-04-01T13:03:09.645Z,98233.13
2023-04-01T13:05:55.977Z,98241.66
2023-04-01T13:08:34.285Z,98241.66
2023-04-01T13:11:11.700Z,98230.69
2023-04-01T13:13:51.564Z,98226.44
2023-04-01T13:16:22.761Z,98229.69
2023-04-01T13:18:58.163Z,98231.25
2023-04-01T13:21:33.197Z,98224.44
2023-04-01T13:24:06.064Z,98223.59
2023-04-01T13:26:39.332Z,98227.78
2023-04-01T13:29:12.624Z,98215.91
2023-04-01T13:31:50.298Z,98222.50
2023-04-01T13:34:31.366Z,98215.59
2023-04-01T13:37:07.152Z,98220.63
2023-04-01T13:39:46.443Z,98216.97
2023-04-01T13:42:26.154Z,98216.66
2023-04-01T13:44:59.031Z,98218.03
2023-04-01T13:47:45.517Z,98217.81
2023-04-01T13:50:24.835Z,98220.13
2023-04-01T13:53:09.334Z,98211.34
2023-04-01T13:55:51.270Z,98204.88
2023-04-01T13:58:26.865Z,98204.38
2023-04-01T14:01:02.652Z,98207.50
2023-04-01T14:03:34.767Z,98208.94
2023-04-01T14:06:09.627Z,98201.97
2023-04-01T14:08:45.509Z,98200.16
2023-04-01T14:11:17.865Z,98200.69
2023-04-01T14:13:52.896Z,98202.09
2023-04-01T14:16:32.132Z,98211.50
2023-04-01T14:19:05.681Z,98208.75
2023-04-01T14:21:39.098Z,98211.16
2023-04-01T14:24:25.365Z,98218.81
2023-04-01T14:27:05.384Z,98214.50
2023-04-01T14:29:39.371Z,98210.28
2023-04-01T14:32:13.666Z,98217.06
2023-04-01T14:34:48.690Z,98224.75
2023-04-01T14:37:28.217Z,98222.53
2023-04-01T14:40:08.542Z,98215.19
2023-04-01T14:42:49.165Z,98211.94
2023-04-01T14:45:35.863Z,98221.38
2023-04-01T14:48:16.443Z,98224.84
2023-04-01T14:50:46.935Z,98212.16
2023-04-01T14:53:21.240Z,98223.31
2023-04-01T14:55:52.451Z,98219.91
2023-04-01T14:58:23.036Z,98218.97
2023-04-01T15:01:00.698Z,98213.00
2023-04-01T15:03:35.285Z,98212.16
2023-04-01T15:06:16.009Z,98215.56
2023-04-01T15:08:51.695Z,98218.97
2023-04-01T15:11:29.583Z,98218.03
2023-04-01T15:14:08.962Z,98206.94
2023-04-01T15:16:43.086Z,98217.19
2023-04-01T15:19:18.193Z,98208.63
2023-04-01T15:21:58.127Z,98210.28
2023-04-01T15:24:28.345Z,98208.63
2023-04-01T15:27:13.777Z,98207.66
2023-04-01T15:29:59.056Z,98214.25
2023-04-01T15:32:32.701Z,98215.13
2023-04-01T15:35:09.358Z,98215.59
2023-04-01T15:37:41.292Z,98225.72
2023-04-01T15:40:18.243Z,98229.22
2023-04-01T15:42:54.048Z,98225.63
2023-04-01T15:45:36.545Z,98225.63
2023-04-01T15:48:14.744Z,98224.78
2023-04-01T15:50:54.468Z,98221.50
2023-04-01T15:53:33.835Z,98222.28
2023-04-01T15:56:09.587Z,98229.22
2023-04-01T15:58:46.100Z,98225.19
2023-04-01T16:01:21.921Z,98223.03
2023-04-01T16:03:57.028Z,98226.81
2023-04-01T16:06:41.813Z,98232.22
2023-04-01T16:09:20.171Z,98229.72
2023-04-01T16:11:56.160Z,98230.56
2023-04-01T16:14:31.623Z,98227.22
2023-04-01T16:17:06.222Z,98221.19
2023-04-01T16:19:40.288Z,98227.94
2023-04-01T16:22:15.232Z,98232.13
2023-04-01T16:24:46.902Z,98226.88
2023-04-01T16:27:19.311Z,98229.38
2023-04-01T16:29:51.058Z,98228.56
2023-04-01T16:32:29.481Z,98222.59
2023-04-01T16:35:04.434Z,98231.25
2023-04-01T16:37:39.053Z,98236.75
2023-04-01T16:40:15.293Z,98237.94
2023-04-01T16:42:49.093Z,98241.59
